Time;durP1;ratioP1;P1;durP2;ratioP2;P2;SDS_P1;SDS_P2;PMS_P1;PMS_P2;Temp;Humidity;BMP_temperature;BMP_pressure;BME280_temperature;BME280_humidity;BME280_pressure;Samples;Min_cycle;Max_cycle;Signal;HPM_P1;HPM_P2
2021/08/18 00:01:46;;;;;;;5.95;2.35;;;;;;;;;;8297400;28;20052;-76
2021/08/18 00:05:52;;;;;;;5.65;2.15;;;;;;;;;;8283668;28;20371;-76
2021/08/18 00:09:57;;;;;;;6.10;2.13;;;;;;;;;;8297776;28;20407;-76
2021/08/18 00:14:03;;;;;;;6.10;2.42;;;;;;;;;;8295909;28;20345;-76
2021/08/18 00:18:09;;;;;;;4.95;2.08;;;;;;;;;;8296446;28;20099;-76
2021/08/18 00:22:14;;;;;;;4.68;2.25;;;;;;;;;;8299122;28;20462;-76
2021/08/18 00:26:26;;;;;;;5.85;1.75;;;;;;;;;;8298315;28;20059;-77
2021/08/18 00:30:42;;;;;;;10.07;2.63;;;;;;;;;;8296532;28;20447;-76
2021/08/18 00:34:47;;;;;;;7.25;2.20;;;;;;;;;;8295278;28;20376;-77
2021/08/18 00:38:53;;;;;;;6.57;1.88;;;;;;;;;;8296899;28;20382;-77
2021/08/18 00:42:58;;;;;;;3.58;2.10;;;;;;;;;;8297563;28;20339;-76
2021/08/18 00:47:06;;;;;;;4.40;2.22;;;;;;;;;;8277624;28;20348;-77
2021/08/18 00:51:15;;;;;;;9.20;2.92;;;;;;;;;;8293902;28;20372;-77
2021/08/18 00:55:24;;;;;;;6.78;2.22;;;;;;;;;;8295177;28;20052;-76
2021/08/18 00:59:31;;;;;;;4.43;2.10;;;;;;;;;;8275664;28;20333;-76
2021/08/18 01:03:36;;;;;;;2.58;1.90;;;;;;;;;;8292054;28;20487;-76
2021/08/18 01:07:42;;;;;;;4.78;2.13;;;;;;;;;;8292621;28;20360;-76
2021/08/18 01:11:51;;;;;;;4.75;2.58;;;;;;;;;;8294898;28;20429;-76
2021/08/18 01:15:58;;;;;;;5.07;2.60;;;;;;;;;;8293502;28;20467;-76
2021/08/18 01:20:03;;;;;;;5.35;2.33;;;;;;;;;;8291651;28;20044;-76
2021/08/18 01:24:10;;;;;;;4.97;2.65;;;;;;;;;;8294190;28;20075;-77
2021/08/18 01:28:16;;;;;;;5.32;2.50;;;;;;;;;;8292976;28;20452;-77
2021/08/18 01:32:21;;;;;;;3.30;2.55;;;;;;;;;;8292053;28;20037;-76
2021/08/18 01:36:26;;;;;;;4.38;2.47;;;;;;;;;;8292661;28;20467;-76
2021/08/18 01:40:33;;;;;;;3.90;2.40;;;;;;;;;;8276144;28;20098;-76
2021/08/18 01:44:38;;;;;;;4.40;2.20;;;;;;;;;;8297690;28;20374;-76
2021/08/18 01:48:43;;;;;;;7.93;2.40;;;;;;;;;;8292409;28;20075;-76
2021/08/18 01:52:53;;;;;;;8.40;2.75;;;;;;;;;;8292761;28;20057;-76
2021/08/18 01:56:58;;;;;;;5.25;2.38;;;;;;;;;;8291964;28;20040;-76
2021/08/18 02:01:06;;;;;;;7.45;2.53;;;;;;;;;;8288769;28;20048;-76
2021/08/18 02:05:13;;;;;;;5.05;2.28;;;;;;;;;;8290836;28;20462;-76
2021/08/18 02:09:18;;;;;;;6.20;2.50;;;;;;;;;;8273730;28;20354;-76
2021/08/18 02:13:23;;;;;;;4.45;2.40;;;;;;;;;;8291555;28;20041;-76
2021/08/18 02:17:29;;;;;;;5.00;2.28;;;;;;;;;;8289874;28;20075;-76
2021/08/18 02:21:34;;;;;;;12.88;2.78;;;;;;;;;;8293869;28;20486;-76
2021/08/18 02:25:39;;;;;;;3.47;2.20;;;;;;;;;;8292897;28;20045;-76
2021/08/18 02:29:45;;;;;;;8.30;2.58;;;;;;;;;;8294488;28;20502;-77
2021/08/18 02:33:50;;;;;;;5.10;2.50;;;;;;;;;;8295096;28;20370;-76
2021/08/18 02:37:57;;;;;;;7.55;2.75;;;;;;;;;;8295849;28;20074;-76
2021/08/18 02:42:04;;;;;;;3.92;2.28;;;;;;;;;;8296994;28;20041;-77
2021/08/18 02:46:09;;;;;;;16.25;2.78;;;;;;;;;;8293698;28;20490;-76
2021/08/18 02:50:18;;;;;;;7.72;2.75;;;;;;;;;;8295582;28;20349;-76
2021/08/18 02:54:24;;;;;;;9.30;3.72;;;;;;;;;;8299557;28;20367;-77
2021/08/18 02:58:29;;;;;;;6.35;3.33;;;;;;;;;;8296011;28;20060;-76
2021/08/18 03:02:34;;;;;;;6.63;3.25;;;;;;;;;;8295161;28;20040;-76
2021/08/18 03:06:40;;;;;;;6.60;2.83;;;;;;;;;;8295289;28;20494;-77
2021/08/18 03:10:45;;;;;;;9.25;2.92;;;;;;;;;;8296775;28;20479;-76
2021/08/18 03:14:51;;;;;;;4.55;2.75;;;;;;;;;;8281826;28;20044;-76
2021/08/18 03:18:56;;;;;;;9.18;2.80;;;;;;;;;;8303973;28;20484;-76
2021/08/18 03:23:01;;;;;;;6.65;2.63;;;;;;;;;;8301134;28;20487;-77
2021/08/18 03:27:06;;;;;;;5.82;2.55;;;;;;;;;;8284814;28;20356;-76
2021/08/18 03:31:12;;;;;;;6.28;2.58;;;;;;;;;;8300446;28;20449;-76
2021/08/18 03:35:17;;;;;;;9.55;2.95;;;;;;;;;;8297647;28;20057;-76
2021/08/18 03:39:22;;;;;;;6.65;2.50;;;;;;;;;;8299307;28;20459;-77
2021/08/18 03:43:27;;;;;;;6.40;2.65;;;;;;;;;;8299381;28;20033;-76
2021/08/18 03:47:32;;;;;;;3.72;2.42;;;;;;;;;;8302215;28;20463;-76
2021/08/18 03:51:37;;;;;;;4.22;2.53;;;;;;;;;;8301279;28;20478;-76
2021/08/18 03:55:43;;;;;;;7.00;2.70;;;;;;;;;;8294664;28;20367;-76
2021/08/18 03:59:48;;;;;;;5.03;2.75;;;;;;;;;;8295820;28;20467;-76
2021/08/18 04:03:53;;;;;;;6.70;2.78;;;;;;;;;;8295503;28;20356;-76
2021/08/18 04:07:58;;;;;;;4.90;2.53;;;;;;;;;;8296663;28;20353;-76
2021/08/18 04:12:05;;;;;;;7.68;3.42;;;;;;;;;;8298146;28;20374;-76
2021/08/18 04:16:10;;;;;;;7.40;2.90;;;;;;;;;;8278931;28;20348;-76
2021/08/18 04:20:15;;;;;;;4.28;2.47;;;;;;;;;;8295701;28;20351;-76
2021/08/18 04:24:21;;;;;;;8.00;2.85;;;;;;;;;;8295753;28;20501;-76
2021/08/18 04:28:26;;;;;;;7.68;3.20;;;;;;;;;;8294891;28;20356;-76
2021/08/18 04:32:32;;;;;;;6.15;3.25;;;;;;;;;;8297016;28;20351;-76
2021/08/18 04:36:37;;;;;;;8.07;3.25;;;;;;;;;;8296145;28;20463;-77
2021/08/18 04:40:44;;;;;;;5.03;2.70;;;;;;;;;;8294962;28;20383;-76
2021/08/18 04:44:48;;;;;;;5.90;2.67;;;;;;;;;;8295491;28;20383;-76
2021/08/18 04:48:53;;;;;;;12.85;3.25;;;;;;;;;;8296357;28;20066;-77
2021/08/18 04:52:59;;;;;;;5.72;2.88;;;;;;;;;;8294099;28;20472;-76
2021/08/18 04:57:05;;;;;;;5.65;3.10;;;;;;;;;;8293080;28;20472;-76
2021/08/18 05:01:10;;;;;;;4.78;2.55;;;;;;;;;;8291569;28;20336;-76
2021/08/18 05:05:15;;;;;;;6.15;2.60;;;;;;;;;;8276237;28;20485;-76
2021/08/18 05:09:20;;;;;;;6.95;2.75;;;;;;;;;;8293949;28;20040;-77
2021/08/18 05:13:26;;;;;;;5.32;2.78;;;;;;;;;;8292160;28;20470;-77
2021/08/18 05:17:31;;;;;;;5.05;3.13;;;;;;;;;;8294794;28;20351;-76
2021/08/18 05:21:36;;;;;;;5.65;2.65;;;;;;;;;;8294794;28;20044;-76
2021/08/18 05:25:41;;;;;;;5.65;3.05;;;;;;;;;;8293420;28;20494;-76
2021/08/18 05:29:46;;;;;;;6.60;3.05;;;;;;;;;;8295359;28;20362;-76
2021/08/18 05:33:52;;;;;;;6.70;2.80;;;;;;;;;;8293905;28;20063;-76
2021/08/18 05:37:57;;;;;;;4.22;2.15;;;;;;;;;;8291775;28;20033;-76
2021/08/18 05:42:02;;;;;;;5.55;2.58;;;;;;;;;;8291522;28;20475;-76
2021/08/18 05:46:07;;;;;;;6.90;2.58;;;;;;;;;;8293669;28;20497;-76
2021/08/18 05:50:13;;;;;;;11.73;3.15;;;;;;;;;;8294212;28;20379;-76
2021/08/18 05:54:19;;;;;;;5.00;2.75;;;;;;;;;;8295213;28;20341;-77
2021/08/18 05:58:24;;;;;;;7.20;3.47;;;;;;;;;;8257600;28;20357;-76
2021/08/18 06:02:28;;;;;;;8.07;3.63;;;;;;;;;;8293217;28;20052;-76
2021/08/18 06:06:34;;;;;;;8.65;2.78;;;;;;;;;;8292448;28;20494;-76
2021/08/18 06:10:40;;;;;;;13.60;3.85;;;;;;;;;;8290972;28;20471;-76
2021/08/18 06:14:44;;;;;;;10.43;3.22;;;;;;;;;;8292998;28;20059;-76
2021/08/18 06:18:50;;;;;;;8.68;3.08;;;;;;;;;;8291679;28;20033;-76
2021/08/18 06:22:58;;;;;;;9.50;3.40;;;;;;;;;;8291232;28;20532;-76
2021/08/18 06:27:03;;;;;;;7.82;3.50;;;;;;;;;;8292519;28;20429;-76
2021/08/18 06:31:10;;;;;;;8.43;3.30;;;;;;;;;;8290759;28;20053;-76
2021/08/18 06:35:15;;;;;;;6.70;3.45;;;;;;;;;;8292107;28;20044;-76
2021/08/18 06:39:20;;;;;;;8.52;3.22;;;;;;;;;;8290794;28;20467;-76
2021/08/18 06:43:25;;;;;;;6.25;3.30;;;;;;;;;;8290094;28;20040;-76
2021/08/18 06:47:31;;;;;;;5.65;2.92;;;;;;;;;;8291142;28;20651;-76
2021/08/18 06:51:37;;;;;;;10.18;4.35;;;;;;;;;;8290987;28;20053;-76
2021/08/18 06:55:42;;;;;;;7.93;3.30;;;;;;;;;;8292085;28;20386;-77
2021/08/18 06:59:47;;;;;;;7.30;3.63;;;;;;;;;;8294159;28;20036;-76
2021/08/18 07:03:54;;;;;;;9.63;3.83;;;;;;;;;;8294816;28;20403;-76
2021/08/18 07:07:59;;;;;;;10.25;4.60;;;;;;;;;;8294624;28;20371;-76
2021/08/18 07:12:05;;;;;;;8.98;3.83;;;;;;;;;;8291719;28;20472;-76
2021/08/18 07:16:11;;;;;;;7.10;3.75;;;;;;;;;;8294927;28;20379;-76
2021/08/18 07:20:16;;;;;;;9.85;3.58;;;;;;;;;;8294315;28;20389;-76
2021/08/18 07:24:23;;;;;;;8.93;3.75;;;;;;;;;;8299839;28;20049;-77
2021/08/18 07:28:28;;;;;;;7.88;3.08;;;;;;;;;;8299849;28;20045;-76
2021/08/18 07:32:34;;;;;;;7.90;3.78;;;;;;;;;;8294560;28;20483;-76
2021/08/18 07:36:40;;;;;;;8.82;3.72;;;;;;;;;;8291368;28;20470;-76
2021/08/18 07:40:46;;;;;;;12.65;3.83;;;;;;;;;;8292692;28;20071;-77
2021/08/18 07:44:52;;;;;;;7.88;3.38;;;;;;;;;;8289697;28;20055;-76
2021/08/18 07:48:57;;;;;;;10.27;4.78;;;;;;;;;;8291779;28;20466;-75
2021/08/18 07:53:06;;;;;;;11.55;4.35;;;;;;;;;;8291049;28;20056;-76
2021/08/18 07:57:11;;;;;;;8.18;4.15;;;;;;;;;;8293257;28;20357;-74
2021/08/18 08:01:16;;;;;;;9.98;4.25;;;;;;;;;;8291571;28;20475;-76
2021/08/18 08:05:21;;;;;;;7.70;4.28;;;;;;;;;;8299413;28;20370;-76
2021/08/18 08:09:26;;;;;;;15.70;4.45;;;;;;;;;;8299197;28;20469;-75
2021/08/18 08:13:31;;;;;;;7.75;3.70;;;;;;;;;;8295854;28;20365;-75
2021/08/18 08:17:36;;;;;;;15.20;3.63;;;;;;;;;;8298704;28;20063;-76
2021/08/18 08:21:41;;;;;;;22.45;4.28;;;;;;;;;;8296746;28;20487;-76
2021/08/18 08:25:46;;;;;;;7.32;4.30;;;;;;;;;;8294995;28;20033;-77
2021/08/18 08:29:51;;;;;;;9.27;4.00;;;;;;;;;;8297610;28;20359;-76
2021/08/18 08:33:56;;;;;;;8.85;3.88;;;;;;;;;;8299266;28;20456;-75
2021/08/18 08:38:04;;;;;;;8.13;3.63;;;;;;;;;;8296345;28;20455;-76
2021/08/18 08:42:07;;;;;;;6.40;3.45;;;;;;;;;;8295227;28;20061;-77
2021/08/18 08:46:14;;;;;;;7.03;3.75;;;;;;;;;;8298047;28;20478;-77
2021/08/18 08:50:19;;;;;;;7.95;4.05;;;;;;;;;;8277574;28;20375;-75
2021/08/18 08:54:24;;;;;;;10.35;3.75;;;;;;;;;;8294422;28;20493;-75
2021/08/18 08:58:30;;;;;;;8.57;3.53;;;;;;;;;;8292556;28;20087;-76
2021/08/18 09:02:34;;;;;;;8.50;4.07;;;;;;;;;;8293582;28;20403;-75
2021/08/18 09:06:40;;;;;;;7.43;3.83;;;;;;;;;;8294378;28;20363;-76
2021/08/18 09:11:05;;;;;;;8.63;3.38;;;;;;;;;;8291953;28;20359;-76
2021/08/18 09:15:30;;;;;;;6.03;3.13;;;;;;;;;;8296563;28;20037;-75
2021/08/18 09:19:35;;;;;;;5.65;2.92;;;;;;;;;;8292279;28;20370;-74
2021/08/18 09:23:40;;;;;;;7.40;3.63;;;;;;;;;;8293443;28;20048;-74
2021/08/18 09:28:04;;;;;;;5.88;3.50;;;;;;;;;;8291245;28;20067;-74
2021/08/18 09:32:30;;;;;;;9.77;3.92;;;;;;;;;;8292534;28;20040;-76
2021/08/18 09:36:40;;;;;;;8.23;3.63;;;;;;;;;;8293028;28;20496;-75
2021/08/18 09:40:51;;;;;;;11.00;3.13;;;;;;;;;;8292671;28;20041;-75
2021/08/18 09:45:19;;;;;;;15.35;3.97;;;;;;;;;;8292692;28;20474;-74
2021/08/18 09:49:33;;;;;;;8.10;3.70;;;;;;;;;;8290105;28;20467;-76
2021/08/18 09:53:41;;;;;;;9.88;3.63;;;;;;;;;;8291111;28;20372;-75
2021/08/18 09:57:46;;;;;;;6.40;3.45;;;;;;;;;;8290866;28;20456;-75
2021/08/18 10:01:51;;;;;;;9.20;4.10;;;;;;;;;;8293768;28;20459;-75
2021/08/18 10:05:58;;;;;;;6.28;3.78;;;;;;;;;;8274142;28;20439;-74
2021/08/18 10:10:04;;;;;;;8.88;4.05;;;;;;;;;;8289795;28;20103;-75
2021/08/18 10:14:10;;;;;;;7.15;3.80;;;;;;;;;;8179272;28;20120;-75
2021/08/18 10:18:36;;;;;;;7.57;4.15;;;;;;;;;;8283741;28;20457;-74
2021/08/18 10:22:42;;;;;;;6.95;3.25;;;;;;;;;;8292478;28;20359;-75
2021/08/18 10:26:51;;;;;;;5.15;3.15;;;;;;;;;;8291614;28;20088;-74
2021/08/18 10:30:57;;;;;;;7.53;3.42;;;;;;;;;;8289654;28;20075;-74
2021/08/18 10:35:03;;;;;;;7.18;4.05;;;;;;;;;;8273603;28;20383;-74
2021/08/18 10:39:23;;;;;;;5.30;3.28;;;;;;;;;;8231553;28;20111;-74
2021/08/18 10:44:03;;;;;;;8.88;3.97;;;;;;;;;;8291046;28;20045;-74
2021/08/18 10:48:10;;;;;;;6.88;3.75;;;;;;;;;;8194125;28;20056;-73
2021/08/18 10:52:37;;;;;;;10.50;4.10;;;;;;;;;;8292091;28;20498;-72
2021/08/18 10:56:48;;;;;;;9.32;3.67;;;;;;;;;;8260493;28;20106;-73
2021/08/18 11:00:54;;;;;;;6.70;4.07;;;;;;;;;;8272882;28;20377;-74
2021/08/18 11:05:13;;;;;;;4.88;2.90;;;;;;;;;;8289375;28;20057;-74
2021/08/18 11:09:49;;;;;;;12.13;4.00;;;;;;;;;;8241112;28;20439;-74
2021/08/18 11:14:09;;;;;;;6.90;3.50;;;;;;;;;;8223803;28;20366;-74
2021/08/18 11:18:18;;;;;;;9.95;4.55;;;;;;;;;;8291848;28;20482;-75
2021/08/18 11:22:24;;;;;;;7.20;3.92;;;;;;;;;;8289732;28;20067;-73
2021/08/18 11:26:41;;;;;;;6.90;4.18;;;;;;;;;;8289779;28;20360;-74
2021/08/18 11:31:02;;;;;;;8.02;4.05;;;;;;;;;;8289485;28;20499;-74
2021/08/18 11:35:08;;;;;;;10.18;4.07;;;;;;;;;;8288705;28;20486;-74
2021/08/18 11:39:14;;;;;;;8.07;3.38;;;;;;;;;;8298587;28;20467;-74
2021/08/18 11:43:41;;;;;;;7.22;3.22;;;;;;;;;;8295777;28;20475;-73
2021/08/18 11:47:46;;;;;;;5.22;3.38;;;;;;;;;;8295858;28;20471;-73
2021/08/18 11:51:52;;;;;;;10.55;4.38;;;;;;;;;;8279035;28;20371;-73
2021/08/18 11:56:04;;;;;;;9.55;4.50;;;;;;;;;;8293605;28;20374;-74
2021/08/18 12:00:13;;;;;;;5.25;3.15;;;;;;;;;;8294929;28;20048;-74
2021/08/18 12:04:22;;;;;;;6.07;3.50;;;;;;;;;;8294280;28;20336;-74
2021/08/18 12:08:39;;;;;;;6.38;3.28;;;;;;;;;;8293918;28;20466;-74
2021/08/18 12:12:45;;;;;;;7.88;2.78;;;;;;;;;;8276518;28;20406;-73
2021/08/18 12:16:59;;;;;;;5.35;3.05;;;;;;;;;;8294504;28;20440;-75
2021/08/18 12:21:33;;;;;;;5.93;3.60;;;;;;;;;;8294640;28;20406;-74
2021/08/18 12:25:38;;;;;;;8.27;2.70;;;;;;;;;;8278373;28;20490;-73
2021/08/18 12:29:45;;;;;;;5.05;2.97;;;;;;;;;;8245842;28;20061;-73
2021/08/18 12:34:11;;;;;;;6.13;3.17;;;;;;;;;;8306408;28;20048;-74
2021/08/18 12:38:20;;;;;;;6.28;3.65;;;;;;;;;;8294357;28;20436;-74
2021/08/18 12:42:38;;;;;;;5.18;2.78;;;;;;;;;;8275938;28;20332;-73
2021/08/18 12:46:45;;;;;;;5.72;2.80;;;;;;;;;;8223983;28;20102;-74
2021/08/18 12:50:50;;;;;;;7.00;2.75;;;;;;;;;;8276531;28;20045;-74
2021/08/18 12:54:56;;;;;;;4.57;2.53;;;;;;;;;;8292246;28;20498;-74
2021/08/18 12:59:01;;;;;;;8.32;3.13;;;;;;;;;;8292341;28;20383;-73
2021/08/18 13:03:07;;;;;;;9.30;3.05;;;;;;;;;;8293590;28;20467;-74
2021/08/18 13:07:12;;;;;;;7.18;3.22;;;;;;;;;;8290812;28;20356;-73
2021/08/18 13:11:17;;;;;;;6.00;3.35;;;;;;;;;;8291507;28;20072;-74
2021/08/18 13:15:23;;;;;;;6.10;2.85;;;;;;;;;;8292151;28;20436;-73
2021/08/18 13:19:29;;;;;;;6.13;2.85;;;;;;;;;;8294017;28;20063;-74
2021/08/18 13:23:35;;;;;;;5.90;2.72;;;;;;;;;;8293155;28;20482;-74
2021/08/18 13:27:40;;;;;;;4.97;2.60;;;;;;;;;;8219792;28;20463;-74
2021/08/18 13:31:45;;;;;;;5.82;2.70;;;;;;;;;;8291837;28;20048;-74
2021/08/18 13:35:50;;;;;;;10.13;2.97;;;;;;;;;;8290801;28;20394;-73
2021/08/18 13:39:56;;;;;;;5.13;2.13;;;;;;;;;;8291027;28;20509;-73
2021/08/18 13:44:01;;;;;;;4.05;2.42;;;;;;;;;;8290740;28;20481;-73
2021/08/18 13:48:06;;;;;;;4.40;2.10;;;;;;;;;;8274877;28;20044;-74
2021/08/18 13:52:12;;;;;;;4.30;2.45;;;;;;;;;;8292075;28;20490;-73
2021/08/18 13:56:17;;;;;;;5.68;2.70;;;;;;;;;;8292022;28;20044;-73
2021/08/18 14:00:23;;;;;;;4.32;2.42;;;;;;;;;;8289072;28;20337;-74
2021/08/18 14:04:29;;;;;;;6.30;2.70;;;;;;;;;;8291614;28;20368;-73
2021/08/18 14:08:41;;;;;;;4.57;2.28;;;;;;;;;;8291064;28;20455;-73
2021/08/18 14:12:46;;;;;;;5.88;2.40;;;;;;;;;;8291995;28;20052;-74
2021/08/18 14:16:51;;;;;;;5.38;2.17;;;;;;;;;;8291898;28;20483;-74
2021/08/18 14:20:56;;;;;;;2.75;2.08;;;;;;;;;;8291898;28;20363;-73
2021/08/18 14:25:01;;;;;;;4.18;2.15;;;;;;;;;;8289238;28;20388;-73
2021/08/18 14:29:06;;;;;;;6.32;1.70;;;;;;;;;;8274180;28;20383;-74
2021/08/18 14:33:11;;;;;;;4.60;2.25;;;;;;;;;;8290046;28;20478;-74
2021/08/18 14:37:16;;;;;;;4.75;1.80;;;;;;;;;;8288346;28;20425;-74
2021/08/18 14:41:22;;;;;;;3.75;2.17;;;;;;;;;;8117851;28;20356;-74
2021/08/18 14:45:27;;;;;;;2.42;1.50;;;;;;;;;;8310360;28;20044;-74
2021/08/18 14:49:32;;;;;;;2.60;1.60;;;;;;;;;;8289377;28;20070;-74
2021/08/18 14:53:37;;;;;;;5.40;2.63;;;;;;;;;;8323157;28;20385;-74
2021/08/18 14:57:43;;;;;;;5.57;2.20;;;;;;;;;;8255221;28;20048;-74
2021/08/18 15:01:48;;;;;;;4.47;2.15;;;;;;;;;;8248551;28;20048;-74
2021/08/18 15:05:54;;;;;;;3.88;1.98;;;;;;;;;;8290694;28;20470;-73
2021/08/18 15:10:00;;;;;;;3.38;1.98;;;;;;;;;;8290219;28;20044;-73
2021/08/18 15:14:05;;;;;;;5.28;1.90;;;;;;;;;;8289125;28;20359;-74
2021/08/18 15:18:10;;;;;;;3.58;1.83;;;;;;;;;;8268204;28;20052;-73
2021/08/18 15:22:17;;;;;;;6.70;2.15;;;;;;;;;;8292489;28;20472;-73
2021/08/18 15:26:22;;;;;;;4.18;2.03;;;;;;;;;;8202307;28;20052;-74
2021/08/18 15:30:28;;;;;;;4.60;2.30;;;;;;;;;;8287451;28;20443;-73
2021/08/18 15:34:34;;;;;;;4.30;2.13;;;;;;;;;;8289345;28;20355;-73
2021/08/18 15:38:39;;;;;;;4.88;2.30;;;;;;;;;;8289805;28;20478;-73
2021/08/18 15:42:45;;;;;;;3.47;2.05;;;;;;;;;;8249235;28;20441;-73
2021/08/18 15:46:50;;;;;;;5.50;2.10;;;;;;;;;;8287047;28;20367;-73
2021/08/18 15:50:55;;;;;;;2.85;1.80;;;;;;;;;;8290222;28;20355;-73
2021/08/18 15:55:03;;;;;;;4.10;2.00;;;;;;;;;;8255059;28;20363;-74
2021/08/18 15:59:09;;;;;;;5.57;2.55;;;;;;;;;;8288437;28;20459;-74
2021/08/18 16:03:14;;;;;;;3.63;1.83;;;;;;;;;;8287799;28;20471;-73
2021/08/18 16:07:20;;;;;;;4.55;2.40;;;;;;;;;;8288439;28;20510;-74
2021/08/18 16:11:25;;;;;;;4.35;2.25;;;;;;;;;;8289081;28;20351;-74
2021/08/18 16:15:31;;;;;;;7.10;2.13;;;;;;;;;;8287250;28;20505;-74
2021/08/18 16:19:37;;;;;;;6.32;2.40;;;;;;;;;;8289420;28;20357;-74
2021/08/18 16:23:42;;;;;;;3.92;2.35;;;;;;;;;;8292090;28;20474;-73
2021/08/18 16:27:48;;;;;;;3.45;1.83;;;;;;;;;;8293829;28;20510;-73
2021/08/18 16:31:53;;;;;;;9.63;2.60;;;;;;;;;;8292887;28;20362;-73
2021/08/18 16:35:59;;;;;;;4.82;2.38;;;;;;;;;;8295199;28;20367;-73
2021/08/18 16:40:05;;;;;;;3.72;2.10;;;;;;;;;;8292568;28;20475;-74
2021/08/18 16:44:10;;;;;;;3.63;2.38;;;;;;;;;;8293533;28;20509;-74
2021/08/18 16:48:15;;;;;;;4.63;2.45;;;;;;;;;;8292571;28;20044;-73
2021/08/18 16:52:21;;;;;;;8.18;2.45;;;;;;;;;;8295710;28;20474;-73
2021/08/18 16:56:26;;;;;;;7.88;2.40;;;;;;;;;;8229786;28;20056;-74
2021/08/18 17:00:31;;;;;;;5.32;2.03;;;;;;;;;;8292957;28;20040;-73
2021/08/18 17:04:37;;;;;;;5.30;2.38;;;;;;;;;;8257584;28;20556;-74
2021/08/18 17:08:42;;;;;;;5.07;2.95;;;;;;;;;;8292054;28;20378;-73
2021/08/18 17:12:47;;;;;;;5.68;2.30;;;;;;;;;;8295383;28;20065;-74
2021/08/18 17:16:53;;;;;;;4.75;2.90;;;;;;;;;;8294763;28;20412;-73
2021/08/18 17:20:58;;;;;;;5.40;3.30;;;;;;;;;;8291872;28;20040;-73
2021/08/18 17:25:06;;;;;;;5.78;2.70;;;;;;;;;;8291795;28;20059;-73
2021/08/18 17:29:11;;;;;;;;;;;;;;;;;;8290892;28;20371;-73
2021/08/18 17:33:18;;;;;;;5.95;2.85;;;;;;;;;;8252207;28;20255;-73
2021/08/18 17:37:22;;;;;;;5.22;2.90;;;;;;;;;;8305514;28;20481;-73
2021/08/18 17:41:27;;;;;;;4.85;2.58;;;;;;;;;;8292352;28;20391;-73
2021/08/18 17:45:33;;;;;;;4.93;3.20;;;;;;;;;;8291715;28;20332;-73
2021/08/18 17:49:38;;;;;;;3.65;2.22;;;;;;;;;;8292271;28;20070;-74
2021/08/18 17:53:43;;;;;;;4.65;2.58;;;;;;;;;;8291759;28;20375;-74
2021/08/18 17:57:49;;;;;;;5.22;2.30;;;;;;;;;;8273999;28;20052;-73
2021/08/18 18:01:55;;;;;;;9.35;3.60;;;;;;;;;;8289394;28;20337;-74
2021/08/18 18:06:00;;;;;;;6.00;3.60;;;;;;;;;;8292437;28;20513;-73
2021/08/18 18:10:09;;;;;;;12.02;4.30;;;;;;;;;;8273423;28;20040;-74
2021/08/18 18:14:13;;;;;;;;;;;;;;;;;;8289933;28;20379;-73
2021/08/18 18:18:19;;;;;;;9.60;4.30;;;;;;;;;;8290160;28;20341;-74
2021/08/18 18:22:31;;;;;;;6.70;3.88;;;;;;;;;;8291021;28;20056;-74
2021/08/18 18:26:36;;;;;;;13.00;3.50;;;;;;;;;;8257305;28;20358;-74
2021/08/18 18:30:43;;;;;;;5.72;3.10;;;;;;;;;;8291517;28;20335;-74
2021/08/18 18:34:49;;;;;;;7.45;3.38;;;;;;;;;;8290504;28;20367;-74
2021/08/18 18:38:54;;;;;;;7.85;3.50;;;;;;;;;;8289765;28;20071;-73
2021/08/18 18:42:59;;;;;;;7.82;3.60;;;;;;;;;;8273303;28;20531;-73
2021/08/18 18:47:05;;;;;;;8.27;3.53;;;;;;;;;;8290647;28;20341;-74
2021/08/18 18:51:10;;;;;;;8.02;3.55;;;;;;;;;;8291121;28;20059;-74
2021/08/18 18:55:15;;;;;;;4.95;2.95;;;;;;;;;;8292007;28;20336;-73
2021/08/18 18:59:24;;;;;;;7.93;3.35;;;;;;;;;;8291176;28;20048;-74
2021/08/18 19:03:33;;;;;;;8.48;3.10;;;;;;;;;;8290321;28;20036;-73
2021/08/18 19:07:39;;;;;;;6.07;3.10;;;;;;;;;;8289598;28;20375;-73
2021/08/18 19:11:49;;;;;;;7.68;3.22;;;;;;;;;;8272982;28;20368;-73
2021/08/18 19:15:54;;;;;;;8.25;3.05;;;;;;;;;;8289938;28;20063;-73
2021/08/18 19:20:01;;;;;;;8.48;3.15;;;;;;;;;;8288355;28;20605;-73
2021/08/18 19:24:06;;;;;;;11.77;3.17;;;;;;;;;;8290324;28;20056;-74
2021/08/18 19:28:11;;;;;;;10.40;3.33;;;;;;;;;;8290404;28;20471;-74
2021/08/18 19:32:16;;;;;;;6.10;3.22;;;;;;;;;;8289657;28;20379;-74
2021/08/18 19:36:23;;;;;;;5.75;2.85;;;;;;;;;;8289683;28;20348;-73
2021/08/18 19:40:28;;;;;;;6.43;3.10;;;;;;;;;;8272442;28;20053;-73
2021/08/18 19:44:34;;;;;;;9.55;3.05;;;;;;;;;;8289438;28;20048;-73
2021/08/18 19:48:39;;;;;;;5.60;3.22;;;;;;;;;;8289833;28;20479;-73
2021/08/18 19:52:45;;;;;;;6.28;2.67;;;;;;;;;;8289637;28;20045;-74
2021/08/18 19:56:50;;;;;;;4.63;2.53;;;;;;;;;;8271364;28;20499;-74
2021/08/18 20:00:55;;;;;;;5.30;2.80;;;;;;;;;;8296617;28;20362;-74
2021/08/18 20:05:00;;;;;;;11.93;3.08;;;;;;;;;;8297560;28;20482;-74
2021/08/18 20:09:06;;;;;;;10.32;3.08;;;;;;;;;;8295072;28;20040;-74
2021/08/18 20:13:11;;;;;;;4.95;2.78;;;;;;;;;;8293568;28;20403;-74
2021/08/18 20:17:16;;;;;;;4.07;2.55;;;;;;;;;;8295173;28;20370;-74
2021/08/18 20:21:21;;;;;;;6.13;2.47;;;;;;;;;;8293599;28;20489;-73
2021/08/18 20:25:27;;;;;;;5.32;2.60;;;;;;;;;;8293479;28;20041;-73
2021/08/18 20:29:32;;;;;;;5.57;3.17;;;;;;;;;;8293975;28;20070;-74
2021/08/18 20:33:37;;;;;;;4.50;2.80;;;;;;;;;;8294747;28;20489;-74
2021/08/18 20:37:42;;;;;;;4.78;2.70;;;;;;;;;;8294469;28;20348;-73
2021/08/18 20:41:48;;;;;;;5.55;2.90;;;;;;;;;;8292590;28;20391;-74
2021/08/18 20:45:53;;;;;;;5.00;2.65;;;;;;;;;;8261572;28;20044;-73
2021/08/18 20:49:58;;;;;;;4.60;2.65;;;;;;;;;;8294701;28;20056;-74
2021/08/18 20:54:03;;;;;;;6.68;2.85;;;;;;;;;;8294692;28;20041;-73
2021/08/18 20:58:09;;;;;;;6.38;3.00;;;;;;;;;;8294698;28;20467;-74
2021/08/18 21:02:14;;;;;;;6.82;3.00;;;;;;;;;;8293849;28;20387;-74
2021/08/18 21:06:21;;;;;;;6.50;2.92;;;;;;;;;;8293637;28;20368;-74
2021/08/18 21:10:28;;;;;;;4.53;2.60;;;;;;;;;;8292773;28;20359;-74
2021/08/18 21:14:34;;;;;;;4.40;2.90;;;;;;;;;;8293909;28;20390;-73
2021/08/18 21:18:44;;;;;;;4.07;2.83;;;;;;;;;;8292279;28;20985;-74
2021/08/18 21:22:52;;;;;;;12.02;3.45;;;;;;;;;;8258995;28;20505;-74
2021/08/18 21:26:58;;;;;;;7.03;3.17;;;;;;;;;;8292071;28;20460;-74
2021/08/18 21:31:04;;;;;;;7.43;3.05;;;;;;;;;;8292783;28;20478;-73
2021/08/18 21:35:10;;;;;;;4.75;2.95;;;;;;;;;;8292364;28;20460;-73
2021/08/18 21:39:15;;;;;;;18.50;3.50;;;;;;;;;;8291670;28;20048;-73
2021/08/18 21:43:20;;;;;;;3.65;2.60;;;;;;;;;;8294896;28;20336;-73
2021/08/18 21:47:25;;;;;;;6.45;2.55;;;;;;;;;;8290478;28;20488;-74
2021/08/18 21:51:30;;;;;;;5.70;2.85;;;;;;;;;;8292780;28;20040;-73
2021/08/18 21:55:37;;;;;;;6.50;2.25;;;;;;;;;;8291888;28;20052;-73
2021/08/18 21:59:43;;;;;;;4.65;2.88;;;;;;;;;;8287850;28;20057;-74
2021/08/18 22:03:48;;;;;;;4.85;2.78;;;;;;;;;;8291473;28;20479;-73
2021/08/18 22:07:57;;;;;;;8.68;3.05;;;;;;;;;;8273982;28;20482;-74
2021/08/18 22:12:04;;;;;;;4.90;2.67;;;;;;;;;;8289107;28;20070;-74
2021/08/18 22:16:12;;;;;;;4.45;2.75;;;;;;;;;;8291641;28;20451;-73
2021/08/18 22:20:17;;;;;;;5.28;2.40;;;;;;;;;;8290341;28;20348;-74
2021/08/18 22:24:23;;;;;;;8.68;3.10;;;;;;;;;;8293827;28;20474;-73
2021/08/18 22:28:29;;;;;;;5.80;2.92;;;;;;;;;;8290844;28;20505;-73
2021/08/18 22:32:39;;;;;;;5.60;3.05;;;;;;;;;;8290963;28;20489;-73
2021/08/18 22:36:45;;;;;;;5.03;3.15;;;;;;;;;;8291829;28;20394;-73
2021/08/18 22:40:50;;;;;;;4.20;2.80;;;;;;;;;;8292661;28;20478;-73
2021/08/18 22:44:58;;;;;;;8.40;2.95;;;;;;;;;;8293463;28;20063;-74
2021/08/18 22:49:04;;;;;;;6.20;3.42;;;;;;;;;;8289128;28;20372;-73
2021/08/18 22:53:09;;;;;;;4.55;2.95;;;;;;;;;;8288094;28;20351;-73
2021/08/18 22:57:14;;;;;;;4.95;3.00;;;;;;;;;;8289789;28;20349;-74
2021/08/18 23:01:20;;;;;;;5.80;2.80;;;;;;;;;;8272737;28;20382;-73
2021/08/18 23:05:25;;;;;;;6.22;2.90;;;;;;;;;;8289626;28;20535;-73
2021/08/18 23:09:32;;;;;;;11.40;2.95;;;;;;;;;;8291462;28;20471;-73
2021/08/18 23:13:37;;;;;;;9.20;3.00;;;;;;;;;;8289226;28;20479;-73
2021/08/18 23:17:42;;;;;;;6.07;3.13;;;;;;;;;;8289366;28;20455;-73
2021/08/18 23:21:51;;;;;;;5.32;2.95;;;;;;;;;;8288809;28;20348;-74
2021/08/18 23:25:56;;;;;;;6.88;2.92;;;;;;;;;;8272696;28;20375;-73
2021/08/18 23:30:01;;;;;;;4.53;2.67;;;;;;;;;;8291610;28;20487;-73
2021/08/18 23:34:06;;;;;;;5.32;2.95;;;;;;;;;;8296365;28;20044;-73
2021/08/18 23:38:11;;;;;;;5.13;2.67;;;;;;;;;;8299191;28;20467;-73
2021/08/18 23:42:17;;;;;;;8.32;3.17;;;;;;;;;;8296694;28;20521;-74
2021/08/18 23:46:22;;;;;;;6.95;2.80;;;;;;;;;;8298772;28;20359;-73
2021/08/18 23:50:30;;;;;;;5.30;2.47;;;;;;;;;;8294068;28;20078;-74
2021/08/18 23:54:37;;;;;;;6.03;3.10;;;;;;;;;;8296201;28;20372;-73
2021/08/18 23:58:42;;;;;;;5.57;3.25;;;;;;;;;;8293396;28;20049;-74
